To NAV CANADA Home Page Login to a new session Search on AWWS site Disclaimer Vers la page française équivalente Tips FAQ What's new on the site To the Forecasts and Observations / NOTAM section To "File a Flight Plan" website Publications and other links Update of the User's profile FIC Telephone Numbers My Weather Data Folder Route Weather Data Regional Weather Data Local Weather Data To the Forecasts and Observations / NOTAM section
Request Generated 10/19/2018 at 16:38:18 UTC . Weather information available at that time is displayed.

METAR/TAF

ROUYN-NORANDA/QC    

METAR CYUY 191600Z 23012G18KT 15SM BKN130 BKN240 11/05 A2959 RMK AC7CI1 CI TR SLP032 DENSITY ALT 1100FT=
METAR CYUY 191500Z 24011G19KT 15SM SCT180 SCT240 11/05 A2962 RMK AC3CI1 SLP041 DENSITY ALT 1100FT=
METAR CYUY 191400Z 23013KT 15SM FEW180 SCT240 08/04 A2965 RMK AC2CI1 SLP055=

TAF CYUY 191138Z 1912/1924 22010KT P6SM FEW050 SCT240
BECMG 1913/1915 22012G22KT
FM191600 22012G22KT P6SM SCT015 BKN070 TEMPO 1916/1920 4SM -RA BR
BKN015 OVC070
FM192000 22015G25KT 6SM -RA BR OVC012 TEMPO 1920/1924 3SM -RA BR
OVC008
RMK NXT FCST BY 191800Z=
Your time UTC time
Weather data provided by Environment Canada and NAV CANADA